Time;durP1;ratioP1;P1;durP2;ratioP2;P2;SDS_P1;SDS_P2;PMS_P1;PMS_P2;Temp;Humidity;BMP_temperature;BMP_pressure;BME280_temperature;BME280_humidity;BME280_pressure;Samples;Min_cycle;Max_cycle;Signal;HPM_P1;HPM_P2
2023/09/01 00:01:36;;;;;;;11.20;5.90;;;14.80;99.90;;;;;;5001732;28;20207;-84
2023/09/01 00:04:02;;;;;;;10.00;5.27;;;14.80;99.90;;;;;;5004884;28;20275;-83
2023/09/01 00:06:27;;;;;;;10.70;6.67;;;14.80;99.90;;;;;;5005892;28;20183;-80
2023/09/01 00:08:53;;;;;;;15.10;7.70;;;14.80;99.90;;;;;;5004400;28;20783;-81
2023/09/01 00:11:20;;;;;;;11.20;7.53;;;14.70;99.90;;;;;;5000439;28;20286;-80
2023/09/01 00:13:46;;;;;;;12.90;7.20;;;14.70;99.90;;;;;;5006701;28;20874;-83
2023/09/01 00:16:11;;;;;;;11.53;7.03;;;14.90;99.90;;;;;;5000560;28;21541;-82
2023/09/01 00:18:37;;;;;;;12.13;6.60;;;14.90;99.90;;;;;;4999424;28;20432;-80
2023/09/01 00:21:06;;;;;;;13.30;7.57;;;14.80;99.90;;;;;;4997322;28;20183;-85
2023/09/01 00:23:32;;;;;;;9.67;6.93;;;14.80;99.90;;;;;;4999672;28;20205;-79
2023/09/01 00:26:00;;;;;;;7.97;7.13;;;14.80;99.90;;;;;;4997256;28;20799;-83
2023/09/01 00:28:26;;;;;;;12.07;6.97;;;14.70;99.90;;;;;;4996038;28;20487;-82
2023/09/01 00:30:53;;;;;;;9.53;6.80;;;14.70;99.90;;;;;;5002726;28;20648;-84
2023/09/01 00:33:19;;;;;;;12.77;7.67;;;14.50;99.90;;;;;;4993968;28;20457;-82
2023/09/01 00:35:44;;;;;;;16.83;7.70;;;14.40;99.90;;;;;;4999221;28;20756;-83
2023/09/01 00:38:10;;;;;;;11.17;7.60;;;14.40;99.90;;;;;;4999765;28;20195;-82
2023/09/01 00:40:35;;;;;;;13.10;7.10;;;14.30;99.90;;;;;;4993339;28;20186;-82
2023/09/01 00:43:01;;;;;;;15.97;8.83;;;14.40;99.90;;;;;;4994977;28;20202;-82
2023/09/01 00:45:27;;;;;;;12.47;7.57;;;14.30;99.90;;;;;;4994698;28;20186;-86
2023/09/01 00:47:53;;;;;;;15.53;7.73;;;14.30;99.90;;;;;;5004692;28;20966;-82
2023/09/01 00:50:18;;;;;;;11.60;7.17;;;14.30;99.90;;;;;;4996154;28;20679;-83
2023/09/01 00:52:44;;;;;;;16.03;7.90;;;14.40;99.90;;;;;;4998709;28;20213;-83
2023/09/01 00:55:09;;;;;;;13.60;7.20;;;14.50;99.90;;;;;;4998562;28;21822;-83
2023/09/01 00:57:35;;;;;;;10.30;6.67;;;14.50;99.90;;;;;;5000618;28;20310;-80
2023/09/01 01:00:01;;;;;;;11.00;6.37;;;14.50;99.90;;;;;;4997689;28;20191;-84
2023/09/01 01:02:26;;;;;;;14.00;6.87;;;14.50;99.90;;;;;;4996075;28;20449;-83
2023/09/01 01:04:54;;;;;;;12.30;8.07;;;14.60;99.90;;;;;;4995188;28;20835;-82
2023/09/01 01:07:23;;;;;;;13.83;7.23;;;14.60;99.90;;;;;;4999460;28;20183;-81
2023/09/01 01:10:04;;;;;;;15.93;8.00;;;14.70;99.90;;;;;;5018536;28;20444;-78
2023/09/01 01:12:57;;;;;;;9.73;6.53;;;14.80;99.90;;;;;;5003599;28;20458;-82
2023/09/01 01:15:23;;;;;;;12.43;7.13;;;14.80;99.90;;;;;;5000588;28;20426;-84
2023/09/01 01:17:51;;;;;;;23.67;7.90;;;14.70;99.90;;;;;;4999459;28;20426;-80
2023/09/01 01:20:31;;;;;;;12.87;6.53;;;14.70;99.90;;;;;;4997530;28;20822;-84
2023/09/01 01:23:16;;;;;;;11.43;7.00;;;14.70;99.90;;;;;;5001034;28;20831;-80
2023/09/01 01:25:52;;;;;;;10.53;6.20;;;14.80;99.90;;;;;;4996137;28;21024;-82
2023/09/01 01:28:19;;;;;;;7.50;5.70;;;14.70;99.90;;;;;;4993909;28;20504;-81
2023/09/01 01:30:46;;;;;;;9.43;5.60;;;14.50;99.90;;;;;;5001059;28;21012;-81
2023/09/01 01:33:37;;;;;;;11.40;4.83;;;14.50;99.90;;;;;;4996270;28;20453;-81
2023/09/01 01:36:19;;;;;;;8.83;5.10;;;14.40;99.90;;;;;;4995137;28;20460;-82
2023/09/01 01:38:52;;;;;;;8.57;4.20;;;14.40;99.90;;;;;;4995756;28;20580;-82
2023/09/01 01:41:31;;;;;;;10.07;4.40;;;14.40;99.90;;;;;;4997289;28;20417;-83
2023/09/01 01:43:58;;;;;;;5.90;4.30;;;14.30;99.90;;;;;;5001891;28;20859;-83
2023/09/01 01:46:26;;;;;;;8.17;4.30;;;14.30;99.90;;;;;;4999331;28;20433;-84
2023/09/01 01:48:51;;;;;;;7.40;4.17;;;14.30;99.90;;;;;;5002369;28;20439;-84
2023/09/01 01:51:17;;;;;;;9.20;4.60;;;14.30;99.90;;;;;;4996776;28;20445;-83
2023/09/01 01:53:42;;;;;;;11.83;4.60;;;14.30;99.90;;;;;;4997241;28;20186;-81
2023/09/01 01:56:08;;;;;;;8.80;4.80;;;14.30;99.90;;;;;;5012519;28;20241;-85
2023/09/01 01:58:33;;;;;;;14.03;4.90;;;15.20;99.90;;;;;;4999225;28;20183;-82
2023/09/01 02:01:03;;;;;;;6.50;4.37;;;14.40;99.90;;;;;;4997865;28;20205;-81
2023/09/01 02:03:29;;;;;;;8.73;4.70;;;14.40;99.90;;;;;;5002469;28;20259;-81
2023/09/01 02:05:54;;;;;;;7.17;4.17;;;14.40;99.90;;;;;;4999721;28;20477;-86
2023/09/01 02:08:20;;;;;;;10.60;4.37;;;14.40;99.90;;;;;;4999906;28;20219;-79
2023/09/01 02:10:48;;;;;;;11.30;5.20;;;14.40;99.90;;;;;;4999766;28;20190;-83
2023/09/01 02:13:13;;;;;;;8.63;4.07;;;14.50;99.90;;;;;;4996617;28;20237;-80
2023/09/01 02:15:39;;;;;;;10.73;5.03;;;14.50;99.90;;;;;;4996535;28;21265;-82
2023/09/01 02:18:08;;;;;;;10.53;5.73;;;14.50;99.90;;;;;;4995895;28;20183;-78
2023/09/01 02:20:37;;;;;;;11.33;4.73;;;14.60;99.90;;;;;;4996371;28;20164;-83
2023/09/01 02:23:04;;;;;;;7.27;4.43;;;14.50;99.90;;;;;;4999208;28;20445;-77
2023/09/01 02:25:30;;;;;;;6.40;4.00;;;;;;;;;;5009710;28;20426;-83
2023/09/01 02:27:56;;;;;;;7.10;4.03;;;14.50;99.90;;;;;;5004488;28;20456;-79
2023/09/01 02:30:23;;;;;;;7.60;3.93;;;;;;;;;;5011991;28;20489;-79
2023/09/01 02:32:48;;;;;;;5.87;3.70;;;14.60;99.90;;;;;;5006226;28;20478;-82
2023/09/01 02:35:14;;;;;;;12.30;5.10;;;14.60;99.90;;;;;;5001044;28;20469;-82
2023/09/01 02:37:40;;;;;;;5.80;4.20;;;14.60;99.90;;;;;;5001341;28;20582;-81
2023/09/01 02:40:12;;;;;;;5.40;4.07;;;14.70;99.90;;;;;;5001587;28;20187;-81
2023/09/01 02:42:39;;;;;;;6.27;4.00;;;14.70;99.90;;;;;;5001212;28;20501;-84
2023/09/01 02:45:05;;;;;;;4.80;3.90;;;14.70;99.90;;;;;;4999481;28;20434;-83
2023/09/01 02:47:31;;;;;;;7.93;4.10;;;14.70;99.90;;;;;;5001876;28;20432;-81
2023/09/01 02:49:56;;;;;;;10.90;3.97;;;14.80;99.90;;;;;;4996724;28;20453;-84
2023/09/01 02:52:22;;;;;;;7.40;3.73;;;14.80;99.90;;;;;;4997450;28;20207;-78
2023/09/01 02:54:47;;;;;;;7.40;4.20;;;14.80;99.90;;;;;;4999818;28;20225;-83
2023/09/01 02:57:13;;;;;;;4.77;3.80;;;14.80;99.90;;;;;;4999720;28;20210;-80
2023/09/01 02:59:38;;;;;;;8.03;4.10;;;14.80;99.90;;;;;;4999241;28;20269;-82
2023/09/01 03:02:04;;;;;;;7.50;4.60;;;14.80;99.90;;;;;;5000315;28;20293;-82
2023/09/01 03:04:30;;;;;;;7.37;4.23;;;;;;;;;;5008938;28;20630;-81
2023/09/01 03:06:59;;;;;;;9.97;3.90;;;14.80;99.90;;;;;;5002559;28;20437;-82
2023/09/01 03:09:24;;;;;;;8.70;4.10;;;14.80;99.90;;;;;;5006347;28;20445;-82
2023/09/01 03:11:51;;;;;;;8.07;4.23;;;14.80;99.90;;;;;;5005635;28;20469;-79
2023/09/01 03:14:16;;;;;;;8.77;3.80;;;14.80;99.90;;;;;;5003655;28;20186;-82
2023/09/01 03:16:43;;;;;;;5.27;4.20;;;14.80;99.90;;;;;;5002507;28;20529;-83
2023/09/01 03:19:09;;;;;;;11.43;4.40;;;;;;;;;;4999888;28;20180;-81
2023/09/01 03:21:35;;;;;;;5.53;3.70;;;;;;;;;;4998668;28;20436;-84
2023/09/01 03:24:02;;;;;;;5.53;3.77;;;;;;;;;;4997542;28;20434;-84
2023/09/01 03:26:30;;;;;;;5.20;3.40;;;15.00;99.90;;;;;;4998974;28;20430;-81
2023/09/01 03:28:56;;;;;;;5.90;3.47;;;14.90;99.90;;;;;;4997690;28;20500;-83
2023/09/01 03:31:21;;;;;;;6.13;4.33;;;14.90;99.90;;;;;;5002102;28;20438;-81
2023/09/01 03:33:47;;;;;;;9.03;3.30;;;15.00;99.90;;;;;;4995492;28;20836;-83
2023/09/01 03:36:13;;;;;;;4.10;3.00;;;15.00;99.90;;;;;;4998591;28;20677;-79
2023/09/01 03:38:39;;;;;;;8.50;3.27;;;15.10;99.90;;;;;;5009354;28;20187;-84
2023/09/01 03:41:06;;;;;;;8.80;4.77;;;15.10;99.90;;;;;;5001008;28;20461;-86
2023/09/01 03:43:32;;;;;;;6.20;3.10;;;15.20;99.90;;;;;;5002393;28;20559;-85
2023/09/01 03:45:58;;;;;;;5.00;2.83;;;;;;;;;;5005013;28;20441;-81
2023/09/01 03:48:25;;;;;;;5.53;3.73;;;15.20;99.90;;;;;;5003861;28;20468;-79
2023/09/01 03:51:11;;;;;;;4.87;3.50;;;15.20;99.90;;;;;;4999533;28;20424;-84
2023/09/01 03:53:38;;;;;;;5.73;3.43;;;15.20;99.90;;;;;;4998608;28;20446;-78
2023/09/01 03:56:15;;;;;;;3.60;2.70;;;15.10;99.90;;;;;;5000919;28;20506;-83
2023/09/01 03:58:41;;;;;;;6.43;2.60;;;15.10;99.90;;;;;;4999948;28;20434;-84
2023/09/01 04:01:11;;;;;;;3.20;2.57;;;15.10;99.90;;;;;;5000870;28;20482;-83
2023/09/01 04:03:37;;;;;;;3.97;2.60;;;15.10;99.90;;;;;;4998101;28;20450;-82
2023/09/01 04:06:05;;;;;;;3.63;3.03;;;15.10;99.90;;;;;;4998866;28;20974;-80
2023/09/01 04:08:30;;;;;;;4.50;2.60;;;15.10;99.90;;;;;;4996730;28;20437;-82
2023/09/01 04:10:56;;;;;;;5.30;2.70;;;;;;;;;;5003792;28;20446;-83
2023/09/01 04:13:22;;;;;;;5.77;3.53;;;15.10;99.90;;;;;;5000395;28;20565;-81
2023/09/01 04:15:47;;;;;;;6.20;2.43;;;15.10;99.90;;;;;;4997038;28;20465;-82
2023/09/01 04:18:13;;;;;;;3.40;2.83;;;15.10;99.90;;;;;;5003952;28;20847;-81
2023/09/01 04:20:38;;;;;;;5.30;2.80;;;15.10;99.90;;;;;;4992316;28;20656;-84
2023/09/01 04:23:04;;;;;;;4.90;2.90;;;15.10;99.90;;;;;;4996426;28;20314;-81
2023/09/01 04:25:30;;;;;;;5.37;3.03;;;;;;;;;;4998099;28;20575;-81
2023/09/01 04:27:55;;;;;;;3.50;2.90;;;15.10;99.90;;;;;;5001390;28;20167;-84
2023/09/01 04:30:21;;;;;;;3.47;3.00;;;15.10;99.90;;;;;;5002355;28;20425;-81
2023/09/01 04:32:46;;;;;;;3.67;3.10;;;15.10;99.90;;;;;;5000142;28;20199;-79
2023/09/01 04:35:12;;;;;;;5.70;2.97;;;15.20;99.90;;;;;;4998883;28;20270;-82
2023/09/01 04:37:38;;;;;;;4.53;2.10;;;15.20;99.90;;;;;;4997224;28;20280;-84
2023/09/01 04:40:06;;;;;;;4.40;2.73;;;15.30;99.90;;;;;;4996934;28;20167;-77
2023/09/01 04:42:32;;;;;;;3.30;3.00;;;15.30;99.90;;;;;;4997914;28;20659;-78
2023/09/01 04:44:58;;;;;;;7.40;2.87;;;15.40;99.90;;;;;;5001369;28;20426;-85
2023/09/01 04:47:24;;;;;;;4.03;2.20;;;15.40;99.90;;;;;;5006752;28;20453;-82
2023/09/01 04:49:50;;;;;;;4.00;2.83;;;15.50;99.90;;;;;;5005383;28;20198;-76
2023/09/01 04:52:15;;;;;;;8.93;2.60;;;15.50;99.90;;;;;;5006412;28;20206;-82
2023/09/01 04:54:41;;;;;;;4.00;2.77;;;15.60;99.90;;;;;;5006148;28;20593;-79
2023/09/01 04:57:07;;;;;;;3.07;2.43;;;;;;;;;;5002684;28;20838;-82
2023/09/01 04:59:33;;;;;;;10.83;3.40;;;;;;;;;;5000810;28;20210;-79
2023/09/01 05:01:59;;;;;;;8.63;3.47;;;15.70;99.90;;;;;;4995727;28;20454;-83
2023/09/01 05:04:26;;;;;;;6.50;3.40;;;15.70;99.90;;;;;;4999048;28;20433;-82
2023/09/01 05:06:51;;;;;;;5.47;2.80;;;15.80;99.90;;;;;;4998696;28;20453;-81
2023/09/01 05:09:17;;;;;;;3.63;2.33;;;15.90;99.90;;;;;;5000837;28;20442;-81
2023/09/01 05:11:42;;;;;;;5.97;3.00;;;16.00;99.90;;;;;;5003124;28;20446;-79
2023/09/01 05:14:08;;;;;;;2.30;2.03;;;16.10;99.90;;;;;;4998742;28;20226;-83
2023/09/01 05:16:33;;;;;;;2.10;1.90;;;16.20;99.90;;;;;;4999544;28;20205;-80
2023/09/01 05:18:59;;;;;;;10.33;2.20;;;16.20;99.90;;;;;;4999388;28;20258;-83
2023/09/01 05:21:24;;;;;;;3.20;2.13;;;16.40;99.90;;;;;;4999924;28;20175;-81
2023/09/01 05:23:50;;;;;;;3.53;2.13;;;16.50;99.90;;;;;;5001079;28;20185;-82
2023/09/01 05:26:15;;;;;;;3.17;2.83;;;16.50;99.90;;;;;;4999591;28;20186;-84
2023/09/01 05:28:41;;;;;;;2.83;2.00;;;16.50;99.90;;;;;;4999883;28;20186;-81
2023/09/01 05:31:06;;;;;;;2.20;1.93;;;16.60;99.90;;;;;;4991657;28;20191;-84
2023/09/01 05:33:32;;;;;;;2.63;1.87;;;16.70;99.90;;;;;;4997442;28;20721;-81
2023/09/01 05:35:57;;;;;;;3.17;2.50;;;16.80;99.90;;;;;;4998855;28;20233;-85
2023/09/01 05:38:23;;;;;;;3.73;2.63;;;16.90;99.90;;;;;;4997012;28;20733;-83
2023/09/01 05:41:00;;;;;;;4.00;2.10;;;16.80;99.90;;;;;;4997758;28;20194;-84
2023/09/01 05:43:26;;;;;;;2.37;1.40;;;;;;;;;;4999460;28;20206;-82
2023/09/01 05:45:51;;;;;;;1.90;1.70;;;17.00;99.90;;;;;;4995697;28;20508;-81
2023/09/01 05:48:17;;;;;;;2.90;2.57;;;17.00;99.90;;;;;;5002208;28;20501;-83
2023/09/01 05:50:43;;;;;;;8.53;2.60;;;17.00;99.90;;;;;;5001417;28;20200;-81
2023/09/01 05:53:10;;;;;;;3.37;2.10;;;;;;;;;;5001459;28;20210;-83
2023/09/01 05:55:36;;;;;;;6.00;2.07;;;17.10;99.90;;;;;;5004874;28;20443;-82
2023/09/01 05:58:02;;;;;;;2.13;1.90;;;17.00;99.90;;;;;;5001979;28;20792;-79
2023/09/01 06:00:28;;;;;;;3.70;2.47;;;16.80;99.90;;;;;;5007372;28;20444;-78
2023/09/01 06:02:54;;;;;;;3.23;2.10;;;16.90;99.90;;;;;;5012154;28;20477;-83
2023/09/01 06:05:20;;;;;;;1.97;1.53;;;16.90;99.90;;;;;;5009395;28;20452;-84
2023/09/01 06:07:46;;;;;;;3.40;1.93;;;17.00;99.90;;;;;;5004917;28;20501;-83
2023/09/01 06:10:12;;;;;;;3.33;2.00;;;17.10;99.90;;;;;;5005678;28;20187;-85
2023/09/01 06:12:37;;;;;;;2.73;2.10;;;17.10;99.90;;;;;;5005815;28;21024;-80
2023/09/01 06:15:03;;;;;;;8.43;2.50;;;17.00;99.90;;;;;;5003735;28;20190;-84
2023/09/01 06:17:29;;;;;;;7.90;2.77;;;16.90;99.90;;;;;;5000573;28;20271;-83
2023/09/01 06:19:54;;;;;;;4.03;2.03;;;16.90;99.90;;;;;;5002024;28;20972;-83
2023/09/01 06:22:21;;;;;;;3.13;2.17;;;16.80;99.90;;;;;;4996705;28;20216;-79
2023/09/01 06:24:47;;;;;;;2.60;1.93;;;16.70;99.90;;;;;;5003359;28;20205;-82
2023/09/01 06:27:12;;;;;;;6.73;3.87;;;16.70;99.90;;;;;;5005535;28;20438;-81
2023/09/01 06:29:38;;;;;;;5.53;2.30;;;16.70;99.90;;;;;;5007175;28;20190;-80
2023/09/01 06:32:04;;;;;;;3.30;2.13;;;16.60;99.90;;;;;;5000581;28;20202;-83
2023/09/01 06:34:29;;;;;;;3.10;2.33;;;16.70;99.90;;;;;;5015714;28;20595;-82
2023/09/01 06:36:56;;;;;;;5.20;2.20;;;16.70;99.90;;;;;;5009412;28;20464;-81
2023/09/01 06:39:22;;;;;;;7.40;1.90;;;16.70;99.90;;;;;;5007275;28;20179;-77
2023/09/01 06:41:47;;;;;;;2.70;1.77;;;16.70;99.90;;;;;;5007719;28;20852;-82
2023/09/01 06:44:13;;;;;;;3.17;2.30;;;16.80;99.90;;;;;;5002654;28;20186;-81
2023/09/01 06:46:38;;;;;;;2.33;2.13;;;16.90;99.90;;;;;;5005431;28;20218;-82
2023/09/01 06:49:04;;;;;;;2.37;2.17;;;17.00;99.90;;;;;;4999823;28;20185;-79
2023/09/01 06:51:30;;;;;;;3.67;2.10;;;17.30;99.90;;;;;;5000425;28;20209;-85
2023/09/01 06:53:55;;;;;;;1.70;1.60;;;17.40;99.90;;;;;;4999500;28;20892;-82
2023/09/01 06:56:21;;;;;;;5.47;2.30;;;17.30;99.90;;;;;;5001496;28;20207;-82
2023/09/01 06:58:46;;;;;;;3.93;2.10;;;17.50;99.90;;;;;;5000373;28;20882;-80
2023/09/01 07:01:15;;;;;;;2.03;1.90;;;17.70;99.90;;;;;;5001391;28;20255;-80
2023/09/01 07:03:40;;;;;;;2.90;1.90;;;18.00;99.90;;;;;;4998448;28;20202;-81
2023/09/01 07:06:06;;;;;;;2.43;1.50;;;18.10;99.90;;;;;;4999747;28;20464;-83
2023/09/01 07:08:32;;;;;;;3.33;1.90;;;18.40;99.90;;;;;;5005023;28;20241;-83
2023/09/01 07:11:05;;;;;;;3.37;1.73;;;18.40;99.90;;;;;;5019700;28;20198;-79
2023/09/01 07:13:31;;;;;;;3.03;1.53;;;18.40;99.90;;;;;;5011507;28;20297;-83
2023/09/01 07:15:56;;;;;;;2.73;1.70;;;18.60;99.90;;;;;;5009308;28;20476;-78
2023/09/01 07:18:23;;;;;;;2.00;1.20;;;19.00;99.90;;;;;;5010627;28;20269;-82
2023/09/01 07:20:49;;;;;;;1.50;1.20;;;;;;;;;;4997677;28;20269;-83
2023/09/01 07:23:14;;;;;;;2.60;1.30;;;19.50;99.90;;;;;;5002735;28;20824;-78
2023/09/01 07:25:40;;;;;;;2.30;1.37;;;19.40;99.90;;;;;;5003862;28;20541;-83
2023/09/01 07:28:06;;;;;;;2.40;1.60;;;19.00;99.90;;;;;;5003889;28;20187;-80
2023/09/01 07:30:32;;;;;;;1.17;1.03;;;;;;;;;;5002628;28;20302;-82
2023/09/01 07:32:59;;;;;;;3.53;1.77;;;19.10;99.90;;;;;;5003370;28;20902;-80
2023/09/01 07:35:24;;;;;;;1.20;1.07;;;19.00;99.90;;;;;;5000631;28;20495;-78
2023/09/01 07:37:50;;;;;;;3.70;1.30;;;19.10;99.90;;;;;;5005788;28;21394;-83
2023/09/01 07:40:15;;;;;;;2.57;1.10;;;18.90;99.90;;;;;;5005981;28;20182;-76
2023/09/01 07:42:41;;;;;;;3.63;1.90;;;18.80;99.90;;;;;;5008340;28;20198;-78
2023/09/01 07:45:07;;;;;;;1.90;1.20;;;18.90;99.90;;;;;;5006044;28;20187;-81
2023/09/01 07:47:33;;;;;;;1.40;1.23;;;18.90;99.90;;;;;;5001079;28;20179;-76
2023/09/01 07:49:58;;;;;;;5.73;1.20;;;;;;;;;;5007130;28;20180;-80
2023/09/01 07:52:25;;;;;;;2.37;1.17;;;19.70;99.90;;;;;;5001948;28;20464;-82
2023/09/01 07:54:51;;;;;;;1.03;0.90;;;19.60;99.90;;;;;;5005347;28;20444;-81
2023/09/01 07:57:16;;;;;;;2.30;1.10;;;19.90;99.90;;;;;;5000589;28;21188;-83
2023/09/01 07:59:42;;;;;;;0.87;0.83;;;19.70;99.90;;;;;;4998115;28;20182;-79
2023/09/01 08:02:07;;;;;;;2.20;1.23;;;19.50;99.90;;;;;;5006270;28;20199;-83
2023/09/01 08:04:33;;;;;;;3.40;1.30;;;19.70;99.90;;;;;;5000372;28;20416;-79
2023/09/01 08:06:59;;;;;;;2.60;2.03;;;20.20;99.90;;;;;;5001341;28;20186;-81
2023/09/01 08:09:25;;;;;;;3.07;1.37;;;;;;;;;;5003894;28;20180;-84
2023/09/01 08:11:51;;;;;;;1.30;1.10;;;20.90;99.90;;;;;;5005461;28;20450;-79
2023/09/01 08:14:17;;;;;;;2.53;1.33;;;21.30;99.90;;;;;;5002307;28;20814;-80
2023/09/01 08:16:42;;;;;;;4.20;1.00;;;21.30;99.90;;;;;;4997218;28;20837;-78
2023/09/01 08:19:09;;;;;;;1.40;1.10;;;;;;;;;;4999919;28;20175;-80
2023/09/01 08:21:35;;;;;;;3.63;1.00;;;22.00;99.90;;;;;;5003121;28;20192;-81
2023/09/01 08:24:02;;;;;;;1.57;0.73;;;22.00;99.90;;;;;;5004777;28;20472;-84
2023/09/01 08:26:28;;;;;;;1.80;1.20;;;22.40;99.90;;;;;;5004418;28;20432;-80
2023/09/01 08:28:54;;;;;;;3.53;1.43;;;22.20;99.90;;;;;;5008899;28;20430;-81
2023/09/01 08:31:19;;;;;;;1.60;0.80;;;22.20;99.90;;;;;;5000056;28;20210;-80
2023/09/01 08:33:45;;;;;;;3.50;1.20;;;22.80;99.90;;;;;;5001795;28;22307;-79
2023/09/01 08:36:10;;;;;;;6.00;1.23;;;23.40;99.90;;;;;;5004931;28;20202;-78
2023/09/01 08:38:36;;;;;;;1.13;0.90;;;23.60;99.90;;;;;;5003248;28;20844;-83
2023/09/01 08:41:05;;;;;;;2.77;0.97;;;23.30;99.90;;;;;;4996948;28;20656;-82
2023/09/01 08:43:36;;;;;;;1.00;0.73;;;23.20;99.90;;;;;;5007065;28;20202;-82
2023/09/01 08:46:03;;;;;;;3.23;1.03;;;22.60;99.90;;;;;;5003697;28;20433;-82
2023/09/01 08:48:33;;;;;;;2.20;1.03;;;22.60;99.90;;;;;;5006162;28;20429;-78
2023/09/01 08:50:58;;;;;;;1.70;1.00;;;22.60;99.90;;;;;;4994871;28;20524;-81
2023/09/01 08:53:25;;;;;;;1.27;0.90;;;23.10;99.90;;;;;;4992579;28;20974;-81
2023/09/01 08:55:51;;;;;;;3.53;1.00;;;23.20;99.90;;;;;;4997626;28;20207;-78
2023/09/01 08:58:19;;;;;;;1.37;0.80;;;24.20;99.90;;;;;;5000861;28;21129;-81
2023/09/01 09:00:45;;;;;;;1.10;0.90;;;;;;;;;;4997454;28;21181;-81
2023/09/01 09:03:16;;;;;;;3.90;1.07;;;26.20;99.90;;;;;;5004002;28;20446;-79
2023/09/01 09:05:44;;;;;;;1.13;1.00;;;28.10;99.90;;;;;;5019977;28;20455;-81
2023/09/01 09:08:10;;;;;;;1.20;0.70;;;;;;;;;;5002710;28;20455;-79
2023/09/01 09:10:38;;;;;;;1.00;0.90;;;30.10;99.90;;;;;;5014394;28;20426;-83
2023/09/01 09:13:20;;;;;;;2.23;0.90;;;30.10;99.90;;;;;;5000657;28;20454;-80
2023/09/01 09:15:45;;;;;;;2.13;1.40;;;29.40;99.90;;;;;;5004152;28;20463;-79
2023/09/01 09:18:28;;;;;;;1.27;0.90;;;29.40;99.90;;;;;;5005534;28;20751;-82
2023/09/01 09:20:53;;;;;;;1.40;0.80;;;29.50;99.90;;;;;;4995211;28;20181;-83
2023/09/01 09:23:19;;;;;;;3.43;1.00;;;27.50;99.90;;;;;;5000196;28;20455;-85
2023/09/01 09:25:44;;;;;;;1.17;0.97;;;26.10;99.90;;;;;;4995709;28;20761;-82
2023/09/01 09:28:16;;;;;;;2.27;0.83;;;24.30;99.90;;;;;;4994847;28;20197;-82
2023/09/01 09:30:52;;;;;;;2.17;1.43;;;24.00;99.90;;;;;;5002072;28;20838;-82
2023/09/01 09:33:34;;;;;;;2.20;1.10;;;23.80;99.90;;;;;;4995982;28;20461;-81
2023/09/01 09:36:00;;;;;;;1.07;0.80;;;22.90;99.90;;;;;;5008290;28;20469;-82
2023/09/01 09:38:43;;;;;;;1.13;0.87;;;23.10;99.90;;;;;;5003794;28;20542;-79
2023/09/01 09:41:08;;;;;;;1.23;0.90;;;23.00;99.90;;;;;;4998292;28;20436;-80
2023/09/01 09:43:45;;;;;;;9.33;1.17;;;23.10;99.90;;;;;;4999114;28;20455;-83
2023/09/01 09:46:11;;;;;;;4.27;1.10;;;23.10;99.90;;;;;;4992742;28;20194;-79
2023/09/01 09:48:38;;;;;;;2.80;1.20;;;23.20;99.90;;;;;;5002859;28;20874;-77
2023/09/01 09:51:08;;;;;;;1.73;0.67;;;23.20;99.90;;;;;;5002519;28;20427;-84
2023/09/01 09:53:38;;;;;;;1.50;1.03;;;23.60;99.90;;;;;;5002683;28;20456;-81
2023/09/01 09:56:33;;;;;;;1.53;0.80;;;23.80;99.90;;;;;;5000939;28;20493;-82
2023/09/01 09:59:03;;;;;;;3.73;0.90;;;24.10;99.90;;;;;;4992455;28;20814;-78
2023/09/01 10:01:39;;;;;;;1.63;0.97;;;24.10;99.90;;;;;;4997424;28;20478;-80
2023/09/01 10:04:05;;;;;;;0.90;0.73;;;24.60;99.90;;;;;;4996991;28;20449;-84
2023/09/01 10:06:33;;;;;;;1.40;0.80;;;24.90;99.90;;;;;;4998358;28;20437;-81
2023/09/01 10:09:00;;;;;;;3.30;1.10;;;24.30;99.90;;;;;;4996538;28;20821;-80
2023/09/01 10:11:28;;;;;;;2.67;0.83;;;23.90;99.90;;;;;;5001703;28;20448;-80
2023/09/01 10:13:55;;;;;;;1.70;0.90;;;24.00;99.90;;;;;;4995651;28;20430;-79
2023/09/01 10:16:22;;;;;;;2.00;0.80;;;23.80;99.90;;;;;;5003259;28;20468;-82
2023/09/01 10:18:48;;;;;;;1.70;0.83;;;24.10;99.90;;;;;;5000121;28;20975;-81
2023/09/01 10:21:16;;;;;;;1.20;0.83;;;23.80;99.90;;;;;;5003169;28;20444;-79
2023/09/01 10:23:43;;;;;;;4.00;1.00;;;23.70;99.90;;;;;;5005283;28;20455;-77
2023/09/01 10:26:17;;;;;;;1.63;1.10;;;23.60;99.90;;;;;;5002225;28;20439;-84
2023/09/01 10:28:56;;;;;;;1.67;0.83;;;23.30;99.90;;;;;;5002360;28;20441;-83
2023/09/01 10:31:23;;;;;;;1.07;0.77;;;;;;;;;;5003426;28;20437;-81
2023/09/01 10:34:12;;;;;;;4.13;0.80;;;23.60;99.90;;;;;;5002557;28;20434;-83
2023/09/01 10:36:40;;;;;;;1.87;1.07;;;23.80;99.90;;;;;;5000804;28;20481;-81
2023/09/01 10:39:23;;;;;;;1.37;0.70;;;24.10;99.90;;;;;;4999262;28;20414;-82
2023/09/01 10:41:59;;;;;;;1.30;0.73;;;24.40;99.90;;;;;;4988487;28;21267;-80
2023/09/01 10:44:51;;;;;;;1.40;0.90;;;24.60;99.90;;;;;;4995154;28;20447;-83
2023/09/01 10:47:32;;;;;;;1.33;1.00;;;24.60;99.90;;;;;;4980968;28;20549;-80
2023/09/01 10:49:59;;;;;;;1.23;0.93;;;24.60;99.90;;;;;;5009859;28;21003;-79
2023/09/01 10:52:26;;;;;;;3.47;1.00;;;;;;;;;;5006104;28;21196;-82
2023/09/01 10:55:05;;;;;;;2.30;0.80;;;24.50;99.90;;;;;;5009799;28;20487;-80
2023/09/01 10:57:49;;;;;;;2.70;0.83;;;24.50;99.90;;;;;;5008365;28;20468;-79
2023/09/01 11:00:32;;;;;;;3.07;0.73;;;23.10;99.90;;;;;;5005070;28;20954;-81
2023/09/01 11:03:33;;;;;;;1.10;0.87;;;22.90;99.90;;;;;;5004452;28;21090;-83
2023/09/01 11:06:03;;;;;;;1.20;0.60;;;23.30;99.90;;;;;;5001437;28;20425;-84
2023/09/01 11:08:30;;;;;;;2.53;0.80;;;23.00;99.90;;;;;;4999121;28;20415;-83
2023/09/01 11:11:06;;;;;;;1.37;0.97;;;23.20;99.90;;;;;;5003128;28;20432;-81
2023/09/01 11:13:31;;;;;;;1.10;0.70;;;23.40;99.90;;;;;;5020055;28;20483;-79
2023/09/01 11:15:57;;;;;;;2.50;1.10;;;23.40;99.90;;;;;;5004510;28;20883;-82
2023/09/01 11:18:24;;;;;;;1.43;0.70;;;23.80;99.90;;;;;;5001076;28;20193;-82
2023/09/01 11:20:53;;;;;;;0.93;0.77;;;24.00;99.90;;;;;;5000349;28;20191;-83
2023/09/01 11:23:20;;;;;;;1.43;0.60;;;24.00;99.90;;;;;;4994719;28;20487;-84
2023/09/01 11:26:09;;;;;;;1.60;0.70;;;23.90;99.90;;;;;;5000232;28;20450;-82
2023/09/01 11:28:35;;;;;;;1.23;1.00;;;24.10;99.90;;;;;;5012256;28;21130;-83
2023/09/01 11:31:05;;;;;;;1.30;0.60;;;24.50;99.90;;;;;;5005178;28;20482;-81
2023/09/01 11:33:36;;;;;;;2.20;0.97;;;24.20;99.90;;;;;;4999782;28;20488;-83
2023/09/01 11:36:05;;;;;;;1.10;0.60;;;24.10;99.90;;;;;;5000226;28;20462;-82
2023/09/01 11:38:31;;;;;;;2.33;0.73;;;24.50;99.90;;;;;;4998307;28;20444;-81
2023/09/01 11:40:58;;;;;;;0.90;0.80;;;25.10;99.90;;;;;;5001810;28;21343;-80
2023/09/01 11:43:24;;;;;;;1.30;0.93;;;25.50;99.90;;;;;;4992458;28;20212;-80
2023/09/01 11:45:50;;;;;;;1.80;0.60;;;25.60;99.90;;;;;;4998519;28;20530;-83
2023/09/01 11:48:25;;;;;;;0.93;0.60;;;25.00;99.90;;;;;;4998666;28;20433;-81
2023/09/01 11:50:57;;;;;;;2.47;0.70;;;24.90;99.90;;;;;;4998620;28;20173;-81
2023/09/01 11:53:27;;;;;;;1.10;0.70;;;24.70;99.90;;;;;;5006576;28;20460;-82
2023/09/01 11:56:01;;;;;;;1.50;0.70;;;24.50;99.90;;;;;;5003038;28;20476;-82
2023/09/01 11:58:32;;;;;;;1.20;0.70;;;24.90;99.90;;;;;;5000279;28;21305;-82
2023/09/01 12:01:14;;;;;;;1.60;0.80;;;25.70;99.90;;;;;;5006033;28;20431;-81
2023/09/01 12:03:45;;;;;;;2.40;0.80;;;25.60;99.90;;;;;;5011527;28;20438;-83
2023/09/01 12:06:44;;;;;;;1.40;0.90;;;25.20;99.90;;;;;;5009386;28;20933;-78
2023/09/01 12:09:15;;;;;;;2.70;1.00;;;25.00;99.90;;;;;;5006768;28;20492;-80
2023/09/01 12:11:54;;;;;;;0.90;0.70;;;24.90;99.90;;;;;;5007421;28;20506;-80
2023/09/01 12:14:30;;;;;;;3.50;1.13;;;25.50;99.90;;;;;;5004535;28;20434;-81
2023/09/01 12:16:57;;;;;;;5.00;1.10;;;24.80;99.90;;;;;;5000856;28;20451;-82
2023/09/01 12:19:24;;;;;;;1.47;0.87;;;24.10;99.90;;;;;;5001069;28;20484;-83
2023/09/01 12:21:54;;;;;;;0.90;0.63;;;23.90;99.90;;;;;;4999311;28;21070;-80
2023/09/01 12:24:20;;;;;;;2.13;1.17;;;24.60;99.90;;;;;;5001897;28;20416;-82
2023/09/01 12:26:49;;;;;;;1.63;1.10;;;23.90;99.90;;;;;;5002686;28;20437;-78
2023/09/01 12:29:15;;;;;;;2.20;1.20;;;23.60;99.90;;;;;;5003448;28;20190;-82
2023/09/01 12:31:42;;;;;;;7.80;1.20;;;24.50;99.90;;;;;;4996330;28;20439;-79
2023/09/01 12:34:08;;;;;;;3.87;1.10;;;24.20;99.90;;;;;;5012965;28;20437;-80
2023/09/01 12:36:33;;;;;;;1.50;1.07;;;24.30;99.90;;;;;;5003812;28;20466;-84
2023/09/01 12:38:59;;;;;;;0.93;0.70;;;24.70;99.90;;;;;;5007942;28;20185;-79
2023/09/01 12:41:24;;;;;;;1.53;1.03;;;24.30;99.90;;;;;;5001037;28;20239;-82
2023/09/01 12:43:50;;;;;;;17.73;1.60;;;24.20;99.90;;;;;;5001106;28;20211;-79
2023/09/01 12:46:15;;;;;;;1.27;0.80;;;24.20;99.90;;;;;;5002509;28;20287;-82
2023/09/01 12:48:41;;;;;;;1.50;0.80;;;23.50;99.90;;;;;;4999563;28;20206;-82
2023/09/01 12:51:07;;;;;;;1.70;0.93;;;23.30;99.90;;;;;;5001166;28;20228;-80
2023/09/01 12:53:32;;;;;;;2.47;1.03;;;23.50;99.90;;;;;;5004346;28;20562;-81
2023/09/01 12:55:59;;;;;;;2.93;1.13;;;23.50;99.90;;;;;;5002370;28;20243;-80
2023/09/01 12:58:28;;;;;;;1.97;1.17;;;23.40;99.90;;;;;;5001237;28;20197;-81